iZZYx Games - Total: 107
1
Rank Song Name Score PGAMB Combo Time
361 Fett's Vette v2 [SR] 798,885 1,075 - 100 - 11 - 13 - 22 184 2026-03-14 05:34:03
2,096 Fett's Vette [FC] 780,550 497 - 8 - 0 - 0 - 0 505 2026-03-14 05:30:54
703 W [PB] 1,259,850 839 - 10 - 0 - 1 - 2 796 2026-03-14 05:28:01
5,800 W [SR] 694,185 498 - 7 - 0 - 2 - 1 419 2026-03-14 05:24:17
16,570 Fly With Me [SR] 616,205 440 - 14 - 1 - 2 - 4 371 2025-11-13 15:20:47
33,306 H a l o g e n (FFR edit) [SR] 386,705 262 - 30 - 1 - 2 - 4 235 2025-11-13 15:19:07
20,276 AM-3P (House Party Dub) [SR] 249,650 158 - 4 - 0 - 1 - 2 162 2025-11-13 15:17:24
483 Crab Rave [FC] [SR] 612,560 387 - 10 - 0 - 0 - 2 397 2025-11-13 15:16:31
492 TURBO [Tokyo Machine] [Standard] 821,815 680 - 19 - 0 - 1 - 5 443 2025-11-13 15:14:46
920 ULTRAnumb [PB] 1,039,620 886 - 24 - 2 - 1 - 4 546 2025-11-13 15:12:00
306 Decadence [SR] 767,295 925 - 59 - 2 - 11 - 19 246 2025-11-13 15:09:04
1,184 ULTRAnumb [SR] 772,490 869 - 40 - 0 - 4 - 11 285 2025-11-13 15:06:11
112 Behind Closed Doors [FC] [PB] 1,223,105 785 - 5 - 0 - 0 - 1 790 2025-11-13 15:02:53
128 Behind Closed Doors [SR] 999,870 779 - 10 - 0 - 1 - 1 569 2025-11-13 14:58:48
2,250 Black Noise --_-- [PB] 974,725 756 - 41 - 0 - 1 - 2 548 2025-07-24 09:46:52
372 TURBO [Tokyo Machine] [Standard] [SR] 1,040,660 691 - 7 - 1 - 1 - 3 659 2025-07-24 09:43:57
2,327 F [PB] 760,485 668 - 16 - 1 - 1 - 3 389 2025-07-24 09:41:05
3,281 F 737,425 660 - 18 - 3 - 5 - 7 371 2025-07-24 09:38:21
1,458 Roses and Butterflies [Standard] [FC] [SR] 1,278,650 820 - 6 - 0 - 0 - 0 826 2025-07-24 09:35:30
38,099 Unhearted [SR] 235,755 148 - 5 - 0 - 0 - 1 153 2025-07-24 09:28:59
4,627 Insomnia (Acid Paradox remix) [PB] 651,745 490 - 25 - 2 - 2 - 6 376 2025-07-02 15:06:51
6,155 Insomnia (Acid Paradox remix) [SR] 1,225 5 - 1 - 0 - 12 - 4 2 2025-07-02 15:01:42
95,036 Switchback (Klayton Revision) [Light] [SR] 66,375 42 - 1 - 0 - 0 - 0 43 2025-02-10 11:07:02
56,686 London Bridges 65,560 44 - 0 - 0 - 2 - 1 42 2025-02-10 11:05:59
56,096 London Bridges [SR] 75,840 53 - 0 - 0 - 1 - 0 47 2025-02-10 11:04:29
5,330 The Gateway [SR] 397,420 296 - 12 - 0 - 2 - 3 232 2024-03-29 05:08:39
220 Enlighten Me [FC] [SR] 691,925 439 - 9 - 0 - 0 - 0 448 2024-03-29 05:07:08
558 Down With the Sickness [FC] [SR] 1,482,895 951 - 7 - 0 - 0 - 4 958 2024-03-29 05:04:35
1,205 Bundy [PB] 1,493,475 1,178 - 95 - 0 - 7 - 19 822 2024-03-29 05:00:49
968 Tron From Hell [FC] [SR] 801,525 513 - 5 - 0 - 0 - 0 518 2024-03-29 04:55:50
528 Noetic [FC] [SR] 653,000 418 - 4 - 0 - 0 - 0 422 2024-03-29 04:53:35
588 Reset [FC] [SR] 953,975 613 - 3 - 0 - 0 - 0 616 2024-03-29 04:50:10
81 Floating [FC] [SR] 631,575 405 - 3 - 0 - 0 - 0 408 2024-03-29 04:46:52
1,007 Maintenance Bot [FC] [SR] 903,725 574 - 11 - 0 - 0 - 0 585 2024-03-29 04:44:15
1,108 Keep On Lovin' You [FC] [SR] 766,975 494 - 1 - 0 - 0 - 0 495 2024-03-29 04:42:04
4,402 We Are Never Ever Getting Back Together [SR] 597,475 383 - 3 - 0 - 0 - 0 386 2024-01-21 09:48:30
1,941 Back to the Gate [PB] 1,108,575 703 - 15 - 2 - 1 - 0 718 2024-01-21 09:46:08
2,985 Back to the Gate 533,265 345 - 3 - 0 - 1 - 0 343 2024-01-21 09:43:49
2,702 Back to the Gate [SR] 790,455 506 - 4 - 1 - 0 - 0 511 2024-01-21 09:42:20
1,241 Indigo [FC] [SR] 915,205 588 - 3 - 0 - 0 - 1 591 2024-01-14 09:43:23
677 Rill Rill (Dr. Ozi Remix) [FC] [SR] 784,685 499 - 8 - 1 - 0 - 1 508 2024-01-14 09:40:56
105 Pleiades East West Mass Rapid Transit Line [FC] [SR] 870,760 557 - 5 - 1 - 0 - 1 563 2024-01-14 09:38:19
876 Experiment [FC] [SR] 905,530 576 - 10 - 0 - 0 - 1 586 2024-01-14 09:35:37
214 Blue Haven [FC] [SR] 695,675 448 - 1 - 0 - 0 - 0 449 2024-01-14 09:33:20
1,033 Seagull [FC] [SR] 867,450 558 - 2 - 0 - 0 - 0 560 2024-01-14 09:31:02
116 Sneaky Snitch [FC] [SR] 480,480 310 - 0 - 0 - 0 - 1 310 2024-01-14 09:29:01
2,284 Parachute (stupid clowns) [FC] [SR] 726,105 466 - 3 - 0 - 0 - 1 469 2024-01-14 09:27:24
14,301 Black Noise --_-- [PB] 555,480 510 - 18 - 0 - 3 - 2 271 2024-01-08 11:21:14
17,587 Black Noise --_-- [SR] 444,770 318 - 8 - 0 - 1 - 1 268 2024-01-08 11:18:52
1,109 Determine [FC] [PB] 590,000 379 - 2 - 0 - 0 - 0 381 2024-01-08 11:16:58
4,401 Determine [SR] 454,930 343 - 6 - 0 - 1 - 3 265 2024-01-08 11:15:02
938 Transparent White [FC] [SR] 671,500 425 - 10 - 0 - 0 - 0 435 2024-01-08 11:13:24
206 Identity [Part 1] [FC] [SR] 743,155 477 - 3 - 0 - 0 - 1 480 2024-01-08 11:11:30
1,087 Read The Mind [FC] [SR] 706,525 455 - 1 - 0 - 0 - 0 456 2024-01-08 11:08:46
1 Time Bomb [AAA] [FC] [SR] 565,750 365 - 0 - 0 - 0 - 0 365 2024-01-08 11:06:51
123 Last Summer [FC] [SR] 1,044,425 673 - 1 - 0 - 0 - 0 674 2024-01-08 11:04:24
2,114 A [FC] [SR] 639,515 407 - 6 - 1 - 0 - 2 414 2024-01-08 11:01:25
20,898 F 577,095 371 - 5 - 0 - 1 - 1 372 2024-01-07 09:30:29
2,918 F [SR] 1,000,445 656 - 29 - 0 - 1 - 1 632 2024-01-07 09:28:53
1,233 Fett's Vette [FC] [SR] 782,200 503 - 2 - 0 - 0 - 0 505 2024-01-07 09:25:40
202 Come With Me [Virtual Riot] [FC] [PB] 891,150 570 - 6 - 0 - 0 - 0 576 2024-01-07 09:22:33
310 Come With Me [Virtual Riot] [SR] 859,365 557 - 17 - 0 - 2 - 2 549 2024-01-07 09:19:56
560 Break Your Neck [FC] [SR] 1,095,300 705 - 2 - 0 - 0 - 0 707 2024-01-07 09:17:21
1,872 Expedite [FC] [SR] 794,480 506 - 8 - 0 - 0 - 1 514 2024-01-07 09:14:41
3,081 Bundy [SR] 581,620 423 - 16 - 0 - 1 - 6 345 2024-01-07 09:12:12
1,430 The World As We Know It [FC] [SR] 1,121,980 714 - 12 - 0 - 0 - 1 726 2024-01-07 09:10:18
724 Two Sisters [FC] [SR] 1,195,830 760 - 14 - 0 - 0 - 1 774 2024-01-07 09:06:25
1,128 Lemonade [FC] [SR] 1,463,565 937 - 8 - 1 - 0 - 2 946 2024-01-07 09:02:01
193 Stricken [Light] [FC] [SR] 1,231,425 792 - 3 - 0 - 0 - 0 795 2024-01-07 08:58:14
1,469 The Rhythm Of Life [FC] [SR] 714,705 457 - 5 - 0 - 0 - 1 462 2024-01-07 08:54:40
1,121 Koala In The Spider's Web [FC] [SR] 774,450 498 - 2 - 0 - 0 - 0 500 2024-01-07 08:51:32
746 Finding a Way [FC] [SR] 780,685 503 - 0 - 1 - 0 - 1 504 2024-01-07 08:48:57
1,816 Zodiac [FC] [PB] 902,825 580 - 3 - 0 - 0 - 0 583 2024-01-07 08:46:02
2,441 Zodiac [SR] 633,670 578 - 4 - 0 - 1 - 1 315 2024-01-07 08:44:00
833 Hoot (AREIA Remix) [FC] [SR] 779,465 494 - 10 - 1 - 0 - 2 505 2024-01-06 07:59:14
291 Change Yourself [Light] [FC] [SR] 635,125 404 - 7 - 0 - 0 - 0 411 2024-01-06 07:56:49
1,897 Speed Kitty [FC] [PB] 657,925 422 - 3 - 0 - 0 - 0 425 2024-01-06 07:54:37
4,395 Speed Kitty [SR] 632,790 410 - 12 - 0 - 3 - 4 405 2024-01-06 07:52:55
1 Killer Dance Floor [AAA] [FC] [SR] 807,550 521 - 0 - 0 - 0 - 0 521 2024-01-06 07:50:31
1,445 Amity [FC] [SR] 570,125 367 - 1 - 0 - 0 - 0 368 2024-01-06 07:48:09
12,920 Horizon Remix [SR] 299,820 308 - 83 - 1 - 20 - 13 114 2023-12-29 17:04:55
1,570 Horizon II (Seven's Dawn) [PB] 1,205,080 818 - 16 - 2 - 1 - 1 751 2023-12-29 17:03:34
13,317 Horizon II (Seven's Dawn) [SR] 778,720 506 - 10 - 0 - 1 - 1 498 2023-12-29 17:00:23
3,497 Horizon [FC] [PB] 884,280 559 - 14 - 0 - 0 - 1 573 2023-12-29 16:57:46
54,166 Horizon [SR] 35,910 24 - 4 - 0 - 3 - 23 23 2023-12-29 16:55:47
1 Between The Sheets [AAA] [FC] [SR] 1,266,350 817 - 0 - 0 - 0 - 0 817 2023-12-29 16:55:03
1,238 My Darkest Hour [FC] [SR] 1,039,185 668 - 3 - 0 - 0 - 2 671 2023-12-29 16:50:51
2,504 Straight To Video [FC] [SR] 1,394,800 890 - 12 - 0 - 0 - 0 902 2023-12-29 16:46:46
1,793 Allison [FC] [SR] 996,550 638 - 6 - 0 - 0 - 0 644 2023-12-29 16:42:26
1 Footsteps [AAA] [FC] [SR] 165,850 107 - 0 - 0 - 0 - 0 107 2023-12-29 07:48:10
1 Louder than Thunder [AAA] [FC] [SR] 654,100 422 - 0 - 0 - 0 - 0 422 2023-12-29 07:46:48
1,880 Tom Savini vs. Greg Nicotero [FC] [SR] 561,825 360 - 3 - 0 - 0 - 0 363 2023-12-29 07:43:56
1,372 Another day [FC] [SR] 748,980 475 - 10 - 0 - 0 - 1 485 2023-12-29 07:39:51
5,196 8-Bit Day Dreamer [FC] [SR] 574,180 364 - 7 - 1 - 0 - 0 372 2023-12-29 07:36:54
3,160 Infection [FC] [SR] 863,480 549 - 9 - 1 - 0 - 0 559 2023-12-29 07:34:54
1,694 Reaper [FC] [SR] 582,525 375 - 1 - 0 - 0 - 0 376 2023-12-29 07:32:21
669 Axel Man [FC] [SR] 460,075 296 - 1 - 0 - 0 - 0 297 2023-12-28 06:33:12
1 Breathe [TwoThirds] [AAA] [FC] [PB] 485,150 313 - 0 - 0 - 0 - 0 313 2023-12-28 06:30:42
9,268 Breathe [TwoThirds] [SR] 202,880 131 - 2 - 0 - 2 - 5 131 2023-12-28 06:28:24
134 Farting Around [FC] [SR] 366,150 228 - 10 - 0 - 0 - 0 238 2023-12-28 06:27:17
1,303 Fatum Anima [FC] [SR] 569,280 364 - 4 - 0 - 0 - 1 368 2023-12-28 06:25:58
302 Gnossienne 5 [FC] [PB] 247,075 152 - 9 - 0 - 0 - 0 161 2023-12-28 06:22:51
1,129 Gnossienne 5 57,800 34 - 4 - 0 - 0 - 0 38 2023-12-28 06:21:24
1,135 Gnossienne 5 52,565 30 - 5 - 0 - 1 - 0 35 2023-12-28 06:20:50
1,102 Gnossienne 5 [PB] 67,965 59 - 3 - 0 - 1 - 0 35 2023-12-28 06:20:05
1,181 Gnossienne 5 [SR] 4,595 6 - 1 - 0 - 16 - 1 6 2023-12-28 06:19:09
1 Passengers [Beginner] [AAA] [FC] [SR] 63,550 41 - 0 - 0 - 0 - 0 41 2023-12-28 06:18:07
1